createdAt,value
2018-01-28T00:00:13.718Z,5.81
2018-01-28T00:02:15.122Z,5.74
2018-01-28T00:04:16.534Z,5.86
2018-01-28T00:06:17.934Z,5.85
2018-01-28T00:08:19.338Z,5.86
2018-01-28T00:10:20.775Z,5.95
2018-01-28T00:12:22.173Z,5.98
2018-01-28T00:14:23.578Z,5.95
2018-01-28T00:16:24.985Z,5.96
2018-01-28T00:18:26.421Z,5.95
2018-01-28T00:20:27.836Z,6.00
2018-01-28T00:22:29.242Z,5.93
2018-01-28T00:24:30.652Z,5.95
2018-01-28T00:26:32.058Z,5.98
2018-01-28T00:28:33.466Z,6.01
2018-01-28T00:30:34.905Z,6.01
2018-01-28T00:32:36.314Z,5.98
2018-01-28T00:34:37.725Z,6.01
2018-01-28T00:36:39.133Z,6.01
2018-01-28T00:38:40.540Z,6.00
2018-01-28T00:40:41.946Z,6.13
2018-01-28T00:42:43.377Z,6.18
2018-01-28T00:44:44.778Z,6.21
2018-01-28T00:46:46.227Z,6.26
2018-01-28T00:48:47.675Z,6.22
2018-01-28T00:50:49.094Z,6.30
2018-01-28T00:52:50.502Z,6.32
2018-01-28T00:54:51.908Z,6.19
2018-01-28T00:56:53.322Z,6.10
2018-01-28T00:58:54.730Z,6.07
2018-01-28T01:00:56.140Z,6.30
2018-01-28T01:02:57.594Z,6.29
2018-01-28T01:04:59.012Z,6.28
2018-01-28T01:07:00.455Z,6.26
2018-01-28T01:09:01.886Z,6.35
2018-01-28T01:11:03.292Z,6.33
2018-01-28T01:13:04.701Z,6.33
2018-01-28T01:15:06.107Z,6.29
2018-01-28T01:17:07.514Z,6.29
2018-01-28T01:19:08.961Z,6.32
2018-01-28T01:21:10.375Z,6.32
2018-01-28T01:23:11.817Z,6.41
2018-01-28T01:25:13.280Z,6.32
2018-01-28T01:27:14.679Z,6.36
2018-01-28T01:29:16.086Z,6.32
2018-01-28T01:31:17.522Z,6.26
2018-01-28T01:33:18.942Z,6.30
2018-01-28T01:35:20.345Z,6.36
2018-01-28T01:37:21.757Z,6.35
2018-01-28T01:39:23.164Z,6.36
2018-01-28T01:41:24.573Z,6.41
2018-01-28T01:43:25.979Z,6.43
2018-01-28T01:45:27.382Z,6.41
2018-01-28T01:47:28.791Z,6.46
2018-01-28T01:49:30.196Z,6.51
2018-01-28T01:51:31.608Z,6.48
2018-01-28T01:53:33.083Z,6.48
2018-01-28T01:55:34.449Z,6.48
2018-01-28T01:57:35.860Z,6.53
2018-01-28T01:59:37.278Z,6.53
2018-01-28T02:01:38.676Z,6.56
2018-01-28T02:03:40.082Z,6.58
2018-01-28T02:05:41.492Z,6.61
2018-01-28T02:07:42.899Z,6.62
2018-01-28T02:09:44.305Z,6.59
2018-01-28T02:11:45.712Z,6.63
2018-01-28T02:13:47.122Z,6.54
2018-01-28T02:15:48.531Z,6.53
2018-01-28T02:17:49.940Z,6.56
2018-01-28T02:19:51.351Z,6.58
2018-01-28T02:21:52.758Z,6.59
2018-01-28T02:23:54.160Z,6.53
2018-01-28T02:25:55.578Z,6.58
2018-01-28T02:27:56.976Z,6.61
2018-01-28T02:29:58.381Z,6.61
2018-01-28T02:31:59.799Z,6.63
2018-01-28T02:34:01.198Z,6.59
2018-01-28T02:36:02.606Z,6.56
2018-01-28T02:38:04.013Z,6.62
2018-01-28T02:40:05.419Z,6.59
2018-01-28T02:42:06.828Z,6.58
2018-01-28T02:44:08.227Z,6.63
2018-01-28T02:46:09.643Z,6.58
2018-01-28T02:48:11.044Z,6.61
2018-01-28T02:50:12.454Z,6.69
2018-01-28T02:52:13.862Z,6.65
2018-01-28T02:54:15.270Z,6.69
2018-01-28T02:56:16.733Z,6.80
2018-01-28T02:58:18.147Z,6.77
2018-01-28T03:00:19.559Z,6.79
2018-01-28T03:02:20.974Z,6.81
2018-01-28T03:04:22.474Z,6.76
2018-01-28T03:06:23.868Z,6.77
2018-01-28T03:08:25.290Z,6.79
2018-01-28T03:10:26.696Z,6.79
2018-01-28T03:12:28.100Z,6.76
2018-01-28T03:14:29.505Z,6.81
2018-01-28T03:16:30.916Z,6.72
2018-01-28T03:18:32.323Z,6.86
2018-01-28T03:20:33.736Z,6.79
2018-01-28T03:22:35.139Z,6.89
2018-01-28T03:24:36.581Z,6.89
2018-01-28T03:26:37.991Z,6.87
2018-01-28T03:28:39.443Z,6.84
2018-01-28T03:30:40.856Z,6.90
2018-01-28T03:32:42.257Z,6.84
2018-01-28T03:34:43.746Z,6.84
2018-01-28T03:36:45.175Z,6.87
2018-01-28T03:38:46.684Z,6.90
2018-01-28T03:40:48.097Z,6.87
2018-01-28T03:42:49.502Z,6.90
2018-01-28T03:44:50.918Z,6.89
2018-01-28T03:46:52.336Z,6.90
2018-01-28T03:48:53.753Z,6.94
2018-01-28T03:50:55.165Z,6.84
2018-01-28T03:52:56.569Z,6.79
2018-01-28T03:54:57.976Z,6.94
2018-01-28T03:56:59.401Z,6.90
2018-01-28T03:59:00.809Z,6.97
2018-01-28T04:01:02.220Z,7.02
2018-01-28T04:03:03.627Z,6.95
2018-01-28T04:05:05.039Z,6.99
2018-01-28T04:07:06.450Z,6.95
2018-01-28T04:09:07.860Z,7.02
2018-01-28T04:11:09.267Z,7.02
2018-01-28T04:13:10.676Z,7.02
2018-01-28T04:15:12.084Z,7.09
2018-01-28T04:17:13.495Z,6.98
2018-01-28T04:19:14.902Z,7.02
2018-01-28T04:21:16.316Z,7.05
2018-01-28T04:23:17.718Z,7.13
2018-01-28T04:25:19.124Z,7.05
2018-01-28T04:27:20.537Z,7.07
2018-01-28T04:29:21.945Z,7.16
2018-01-28T04:31:23.347Z,7.22
2018-01-28T04:33:24.764Z,7.19
2018-01-28T04:35:26.209Z,7.15
2018-01-28T04:37:27.623Z,7.16
2018-01-28T04:39:29.034Z,7.19
2018-01-28T04:41:30.442Z,7.16
2018-01-28T04:43:31.850Z,7.13
2018-01-28T04:45:33.254Z,7.17
2018-01-28T04:47:34.667Z,7.24
2018-01-28T04:49:36.074Z,7.26
2018-01-28T04:51:37.484Z,7.27
2018-01-28T04:53:38.890Z,7.32
2018-01-28T04:55:40.301Z,7.19
2018-01-28T04:57:41.714Z,7.27
2018-01-28T04:59:43.123Z,7.31
2018-01-28T05:01:44.532Z,7.32
2018-01-28T05:03:45.950Z,7.34
2018-01-28T05:05:47.353Z,7.26
2018-01-28T05:07:48.787Z,7.37
2018-01-28T05:09:50.185Z,7.32
2018-01-28T05:11:51.595Z,7.29
2018-01-28T05:13:53.118Z,7.38
2018-01-28T05:15:54.542Z,7.32
2018-01-28T05:17:55.950Z,7.34
2018-01-28T05:19:57.360Z,7.34
2018-01-28T05:21:58.826Z,7.40
2018-01-28T05:24:00.241Z,7.41
2018-01-28T05:26:01.810Z,7.41
2018-01-28T05:28:03.227Z,7.44
2018-01-28T05:30:04.720Z,7.41
2018-01-28T05:32:06.277Z,7.47
2018-01-28T05:34:07.751Z,7.47
2018-01-28T05:36:09.194Z,7.45
2018-01-28T05:38:10.604Z,7.45
2018-01-28T05:40:12.012Z,7.41
2018-01-28T05:42:13.422Z,7.59
2018-01-28T05:44:14.830Z,7.58
2018-01-28T05:46:16.238Z,7.59
2018-01-28T05:48:17.644Z,7.58
2018-01-28T05:50:19.050Z,7.56
2018-01-28T05:52:20.465Z,7.55
2018-01-28T05:54:21.876Z,7.66
2018-01-28T05:56:23.279Z,7.60
2018-01-28T05:58:24.687Z,7.71
2018-01-28T06:00:26.100Z,7.77
2018-01-28T06:02:27.509Z,7.69
2018-01-28T06:04:28.998Z,7.77
2018-01-28T06:06:30.399Z,7.75
2018-01-28T06:08:31.807Z,7.67
2018-01-28T06:10:33.223Z,7.74
2018-01-28T06:12:34.625Z,7.79
